LKMT/OSR METAR and TAF weather

Enter ICAO airport designator
Station Type Date Time Source
LKMT METAR 2021/10/22 19:00 UTC NOAA

LKMT 221900Z 23016KT CAVOK 08/M02 Q1016 NOSIG


Station Type Date Time Source
LKMT Decoded METAR 2021/10/22 19:00 UTC NOAA

Ostrava / Mosnov, Czech Republic (LKMT) 49-41N 018-07E 256M
Oct 22, 2021 - 03:00 PM EDT / 2021.10.22 1900 UTC
Wind: from the SW (230 degrees) at 18 MPH (16 KT):0
Visibility: greater than 7 mile(s):0
Temperature: 46 F (8 C)
Dew Point: 28 F (-2 C)
Relative Humidity: 49%
Pressure (altimeter): 30.00 in. Hg (1016 hPa)
ob: LKMT 221900Z 23016KT CAVOK 08/M02 Q1016 NOSIG
cycle: 19

Station Type Date Time Source
LKMT TAF 2021/10/22 18:24 UTC NOAA

TAF LKMT 221700Z 2218/2400 23014KT CAVOK
TEMPO 2218/2222 24014G28KT
BECMG 2300/2302 23007KT PROB30
TEMPO 2310/2317 28012G24KT
TEMPO 2310/2400 9999 BKN030

Example: see airport list